sensor_id;sensor_type;location;lat;lon;timestamp;pressure;altitude;pressure_sealevel;temperature;humidity
75026;BME280;63591;50.080;8.286;2023-01-30T00:00:17;100306.91;;;9.99;46.14
75026;BME280;63591;50.080;8.286;2023-01-30T00:02:43;100311.34;;;9.98;46.28
75026;BME280;63591;50.080;8.286;2023-01-30T00:05:08;100311.34;;;9.98;46.41
75026;BME280;63591;50.080;8.286;2023-01-30T00:07:33;100313.97;;;9.98;46.23
75026;BME280;63591;50.080;8.286;2023-01-30T00:09:59;100305.13;;;9.99;46.52
75026;BME280;63591;50.080;8.286;2023-01-30T00:12:24;100294.66;;;9.99;46.36
75026;BME280;63591;50.080;8.286;2023-01-30T00:14:49;100305.13;;;9.99;46.43
75026;BME280;63591;50.080;8.286;2023-01-30T00:17:14;100289.41;;;9.99;46.35
75026;BME280;63591;50.080;8.286;2023-01-30T00:19:40;100287.63;;;10.00;46.64
75026;BME280;63591;50.080;8.286;2023-01-30T00:22:05;100278.91;;;9.99;46.39
75026;BME280;63591;50.080;8.286;2023-01-30T00:24:30;100256.16;;;10.00;46.50
75026;BME280;63591;50.080;8.286;2023-01-30T00:26:55;100259.72;;;9.99;46.51
75026;BME280;63591;50.080;8.286;2023-01-30T00:29:21;100240.53;;;9.98;46.53
75026;BME280;63591;50.080;8.286;2023-01-30T00:31:46;100224.81;;;9.98;46.64
75026;BME280;63591;50.080;8.286;2023-01-30T00:34:11;100229.22;;;9.98;46.73
75026;BME280;63591;50.080;8.286;2023-01-30T00:36:37;100234.47;;;9.98;46.72
75026;BME280;63591;50.080;8.286;2023-01-30T00:39:02;100237.06;;;9.98;46.73
75026;BME280;63591;50.080;8.286;2023-01-30T00:41:27;100247.69;;;9.96;46.81
75026;BME280;63591;50.080;8.286;2023-01-30T00:44:12;100229.22;;;9.98;46.88
75026;BME280;63591;50.080;8.286;2023-01-30T00:46:56;100238.72;;;9.99;46.91
75026;BME280;63591;50.080;8.286;2023-01-30T00:49:31;100233.50;;;9.99;46.94
75026;BME280;63591;50.080;8.286;2023-01-30T00:51:57;100232.69;;;9.98;47.03
75026;BME280;63591;50.080;8.286;2023-01-30T00:54:22;100216.94;;;9.98;47.11
75026;BME280;63591;50.080;8.286;2023-01-30T00:56:48;100237.06;;;9.98;47.09
75026;BME280;63591;50.080;8.286;2023-01-30T00:59:13;100225.63;;;9.99;47.23
75026;BME280;63591;50.080;8.286;2023-01-30T01:01:39;100217.75;;;9.99;46.99
75026;BME280;63591;50.080;8.286;2023-01-30T01:04:05;100214.19;;;10.00;47.42
75026;BME280;63591;50.080;8.286;2023-01-30T01:06:32;100222.06;;;10.00;47.30
75026;BME280;63591;50.080;8.286;2023-01-30T01:08:58;100224.69;;;10.00;47.43
75026;BME280;63591;50.080;8.286;2023-01-30T01:11:23;100217.63;;;10.01;47.60
75026;BME280;63591;50.080;8.286;2023-01-30T01:13:52;100225.50;;;10.01;47.80
75026;BME280;63591;50.080;8.286;2023-01-30T01:16:18;100221.94;;;10.02;47.83
75026;BME280;63591;50.080;8.286;2023-01-30T01:18:44;100214.19;;;10.00;47.94
75026;BME280;63591;50.080;8.286;2023-01-30T01:21:09;100204.38;;;10.02;47.91
75026;BME280;63591;50.080;8.286;2023-01-30T01:23:34;100191.41;;;10.01;47.93
75026;BME280;63591;50.080;8.286;2023-01-30T01:26:00;100188.91;;;9.99;47.94
75026;BME280;63591;50.080;8.286;2023-01-30T01:28:26;100201.88;;;10.01;47.99
75026;BME280;63591;50.080;8.286;2023-01-30T01:30:51;100208.94;;;10.00;48.00
75026;BME280;63591;50.080;8.286;2023-01-30T01:33:16;100195.13;;;9.98;47.99
75026;BME280;63591;50.080;8.286;2023-01-30T01:35:42;100192.50;;;9.98;48.06
75026;BME280;63591;50.080;8.286;2023-01-30T01:38:07;100186.41;;;9.97;48.07
75026;BME280;63591;50.080;8.286;2023-01-30T01:40:32;100182.72;;;10.00;48.19
75026;BME280;63591;50.080;8.286;2023-01-30T01:43:18;100188.09;;;9.98;47.92
75026;BME280;63591;50.080;8.286;2023-01-30T01:45:44;100176.63;;;9.99;47.88
75026;BME280;63591;50.080;8.286;2023-01-30T01:48:21;100167.25;;;9.97;47.95
75026;BME280;63591;50.080;8.286;2023-01-30T01:50:53;100164.63;;;9.97;47.97
75026;BME280;63591;50.080;8.286;2023-01-30T01:53:26;100166.28;;;9.98;48.12
75026;BME280;63591;50.080;8.286;2023-01-30T01:55:55;100161.88;;;9.98;48.00
75026;BME280;63591;50.080;8.286;2023-01-30T01:58:26;100157.44;;;9.99;47.88
75026;BME280;63591;50.080;8.286;2023-01-30T02:00:55;100157.31;;;10.01;47.95
75026;BME280;63591;50.080;8.286;2023-01-30T02:03:23;100162.53;;;10.01;48.00
75026;BME280;63591;50.080;8.286;2023-01-30T02:05:52;100151.25;;;10.00;48.02
75026;BME280;63591;50.080;8.286;2023-01-30T02:08:23;100128.59;;;9.99;48.04
75026;BME280;63591;50.080;8.286;2023-01-30T02:10:58;100126.81;;;9.99;48.09
75026;BME280;63591;50.080;8.286;2023-01-30T02:13:25;100127.50;;;10.02;48.13
75026;BME280;63591;50.080;8.286;2023-01-30T02:15:50;100129.28;;;10.01;48.00
75026;BME280;63591;50.080;8.286;2023-01-30T02:18:16;100132.88;;;10.00;47.97
75026;BME280;63591;50.080;8.286;2023-01-30T02:26:47;100126.69;;;10.01;48.10
75026;BME280;63591;50.080;8.286;2023-01-30T02:29:34;100119.78;;;10.00;48.06
75026;BME280;63591;50.080;8.286;2023-01-30T02:37:53;100115.59;;;9.97;48.10
75026;BME280;63591;50.080;8.286;2023-01-30T02:41:18;100107.47;;;10.01;48.14
75026;BME280;63591;50.080;8.286;2023-01-30T02:43:32;100104.03;;;10.00;48.08
75026;BME280;63591;50.080;8.286;2023-01-30T02:48:58;100110.09;;;10.01;48.16
75026;BME280;63591;50.080;8.286;2023-01-30T02:51:34;100112.84;;;9.99;48.25
75026;BME280;63591;50.080;8.286;2023-01-30T02:54:00;100111.78;;;10.02;48.12
75026;BME280;63591;50.080;8.286;2023-01-30T02:56:26;100107.47;;;10.01;48.21
75026;BME280;63591;50.080;8.286;2023-01-30T02:58:55;100110.09;;;10.01;48.25
75026;BME280;63591;50.080;8.286;2023-01-30T03:04:30;100113.81;;;9.98;48.27
75026;BME280;63591;50.080;8.286;2023-01-30T03:09:57;100117.16;;;10.00;48.22
75026;BME280;63591;50.080;8.286;2023-01-30T03:12:37;100125.69;;;10.02;48.26
75026;BME280;63591;50.080;8.286;2023-01-30T03:17:55;100101.16;;;10.03;48.44
75026;BME280;63591;50.080;8.286;2023-01-30T03:20:21;100102.09;;;10.02;48.45
75026;BME280;63591;50.080;8.286;2023-01-30T03:22:47;100082.09;;;10.01;48.57
75026;BME280;63591;50.080;8.286;2023-01-30T03:25:23;100086.63;;;9.99;48.50
75026;BME280;63591;50.080;8.286;2023-01-30T03:27:52;100080.19;;;10.03;48.40
75026;BME280;63591;50.080;8.286;2023-01-30T03:30:18;100082.81;;;10.03;48.37
75026;BME280;63591;50.080;8.286;2023-01-30T03:32:44;100082.81;;;10.03;48.34
75026;BME280;63591;50.080;8.286;2023-01-30T03:35:10;100082.81;;;10.03;48.43
75026;BME280;63591;50.080;8.286;2023-01-30T03:37:35;100082.81;;;10.03;48.54
75026;BME280;63591;50.080;8.286;2023-01-30T03:40:01;100078.22;;;10.05;48.43
75026;BME280;63591;50.080;8.286;2023-01-30T03:42:27;100072.19;;;10.05;48.38
75026;BME280;63591;50.080;8.286;2023-01-30T03:44:52;100067.06;;;10.03;48.61
75026;BME280;63591;50.080;8.286;2023-01-30T03:47:17;100068.72;;;10.04;48.49
75026;BME280;63591;50.080;8.286;2023-01-30T03:49:43;100080.03;;;10.05;48.53
75026;BME280;63591;50.080;8.286;2023-01-30T03:52:08;100075.59;;;10.05;48.75
75026;BME280;63591;50.080;8.286;2023-01-30T03:54:33;100073.97;;;10.04;48.50
75026;BME280;63591;50.080;8.286;2023-01-30T03:56:59;100075.59;;;10.05;48.60
75026;BME280;63591;50.080;8.286;2023-01-30T03:59:24;100061.69;;;10.05;48.67
75026;BME280;63591;50.080;8.286;2023-01-30T04:01:49;100064.16;;;10.06;48.54
75026;BME280;63591;50.080;8.286;2023-01-30T04:04:14;100055.47;;;10.06;48.52
75026;BME280;63591;50.080;8.286;2023-01-30T04:06:40;100043.16;;;10.06;48.63
75026;BME280;63591;50.080;8.286;2023-01-30T04:09:05;100055.34;;;10.07;48.53
75026;BME280;63591;50.080;8.286;2023-01-30T04:11:30;100053.66;;;10.06;48.60
75026;BME280;63591;50.080;8.286;2023-01-30T04:13:56;100038.88;;;10.05;48.56
75026;BME280;63591;50.080;8.286;2023-01-30T04:16:25;100022.34;;;10.05;48.70
75026;BME280;63591;50.080;8.286;2023-01-30T04:18:51;100009.91;;;10.07;48.68
75026;BME280;63591;50.080;8.286;2023-01-30T04:21:17;100009.06;;;10.06;48.73
75026;BME280;63591;50.080;8.286;2023-01-30T04:23:43;100012.53;;;10.07;48.73
75026;BME280;63591;50.080;8.286;2023-01-30T04:26:09;99999.41;;;10.07;48.89
75026;BME280;63591;50.080;8.286;2023-01-30T04:28:34;100003.56;;;10.09;48.82
75026;BME280;63591;50.080;8.286;2023-01-30T04:31:00;99989.75;;;10.07;48.77
75026;BME280;63591;50.080;8.286;2023-01-30T04:33:25;99986.16;;;10.08;48.66
75026;BME280;63591;50.080;8.286;2023-01-30T04:35:54;99966.97;;;10.08;48.76
75026;BME280;63591;50.080;8.286;2023-01-30T04:38:21;99967.09;;;10.06;48.69
75026;BME280;63591;50.080;8.286;2023-01-30T04:40:47;99968.06;;;10.05;48.66
75026;BME280;63591;50.080;8.286;2023-01-30T04:43:13;99967.53;;;10.02;48.79
75026;BME280;63591;50.080;8.286;2023-01-30T04:45:42;99966.97;;;9.98;48.88
75026;BME280;63591;50.080;8.286;2023-01-30T04:48:07;99967.94;;;9.97;48.92
75026;BME280;63591;50.080;8.286;2023-01-30T04:50:33;99972.63;;;9.93;48.79
75026;BME280;63591;50.080;8.286;2023-01-30T04:52:58;99962.13;;;9.93;48.41
75026;BME280;63591;50.080;8.286;2023-01-30T04:55:23;99958.00;;;9.91;48.81
75026;BME280;63591;50.080;8.286;2023-01-30T04:57:48;99945.16;;;9.88;48.97
75026;BME280;63591;50.080;8.286;2023-01-30T05:00:14;99952.31;;;9.85;48.96
75026;BME280;63591;50.080;8.286;2023-01-30T05:02:39;99953.28;;;9.84;48.84
75026;BME280;63591;50.080;8.286;2023-01-30T05:05:05;99939.34;;;9.84;48.93
75026;BME280;63591;50.080;8.286;2023-01-30T05:07:30;99942.81;;;9.84;48.78
75026;BME280;63591;50.080;8.286;2023-01-30T05:09:55;99945.56;;;9.83;48.94
75026;BME280;63591;50.080;8.286;2023-01-30T05:12:20;99943.78;;;9.83;49.00
75026;BME280;63591;50.080;8.286;2023-01-30T05:14:46;99944.72;;;9.82;49.04
75026;BME280;63591;50.080;8.286;2023-01-30T05:17:11;99948.31;;;9.81;48.99
75026;BME280;63591;50.080;8.286;2023-01-30T05:19:36;99937.81;;;9.81;49.05
75026;BME280;63591;50.080;8.286;2023-01-30T05:22:01;99929.97;;;9.81;48.93
75026;BME280;63591;50.080;8.286;2023-01-30T05:24:27;99938.81;;;9.80;48.85
75026;BME280;63591;50.080;8.286;2023-01-30T05:26:52;99943.91;;;9.82;49.02
75026;BME280;63591;50.080;8.286;2023-01-30T05:29:18;99941.28;;;9.82;48.93
75026;BME280;63591;50.080;8.286;2023-01-30T05:31:43;99935.19;;;9.81;49.03
75026;BME280;63591;50.080;8.286;2023-01-30T05:34:10;99926.38;;;9.82;49.19
75026;BME280;63591;50.080;8.286;2023-01-30T05:36:36;99921.28;;;9.81;48.88
75026;BME280;63591;50.080;8.286;2023-01-30T05:39:01;99917.00;;;9.80;49.00
75026;BME280;63591;50.080;8.286;2023-01-30T05:41:27;99922.09;;;9.81;49.15
75026;BME280;63591;50.080;8.286;2023-01-30T05:43:52;99909.13;;;9.80;49.17
75026;BME280;63591;50.080;8.286;2023-01-30T05:46:17;99906.50;;;9.80;49.05
75026;BME280;63591;50.080;8.286;2023-01-30T05:48:46;99906.50;;;9.80;49.47
75026;BME280;63591;50.080;8.286;2023-01-30T05:51:21;99905.00;;;9.77;49.36
75026;BME280;63591;50.080;8.286;2023-01-30T05:53:46;99908.31;;;9.79;49.48
75026;BME280;63591;50.080;8.286;2023-01-30T05:56:12;99912.72;;;9.79;49.61
75026;BME280;63591;50.080;8.286;2023-01-30T05:58:37;99910.94;;;9.79;49.79
75026;BME280;63591;50.080;8.286;2023-01-30T06:01:05;99920.44;;;9.80;49.83
75026;BME280;63591;50.080;8.286;2023-01-30T06:03:31;99920.44;;;9.80;49.84
75026;BME280;63591;50.080;8.286;2023-01-30T06:05:57;99915.22;;;9.80;49.97
75026;BME280;63591;50.080;8.286;2023-01-30T06:08:23;99898.63;;;9.80;50.10
75026;BME280;63591;50.080;8.286;2023-01-30T06:10:48;99902.22;;;9.79;50.20
75026;BME280;63591;50.080;8.286;2023-01-30T06:13:14;99895.34;;;9.78;50.55
75026;BME280;63591;50.080;8.286;2023-01-30T06:15:39;99910.09;;;9.79;50.33
75026;BME280;63591;50.080;8.286;2023-01-30T06:18:04;99906.50;;;9.80;50.26
75026;BME280;63591;50.080;8.286;2023-01-30T06:20:30;99904.72;;;9.80;50.36
75026;BME280;63591;50.080;8.286;2023-01-30T06:22:55;99904.84;;;9.79;50.31
75026;BME280;63591;50.080;8.286;2023-01-30T06:25:20;99909.25;;;9.78;50.35
75026;BME280;63591;50.080;8.286;2023-01-30T06:27:46;99911.06;;;9.78;50.45
75026;BME280;63591;50.080;8.286;2023-01-30T06:30:11;99912.72;;;9.79;50.44
75026;BME280;63591;50.080;8.286;2023-01-30T06:32:37;99914.50;;;9.78;50.42
75026;BME280;63591;50.080;8.286;2023-01-30T06:35:02;99931.06;;;9.79;50.47
75026;BME280;63591;50.080;8.286;2023-01-30T06:37:28;99928.44;;;9.79;50.39
75026;BME280;63591;50.080;8.286;2023-01-30T06:39:53;99911.88;;;9.78;50.47
75026;BME280;63591;50.080;8.286;2023-01-30T06:42:18;99909.41;;;9.77;50.42
75026;BME280;63591;50.080;8.286;2023-01-30T06:44:43;99906.91;;;9.75;50.38
75026;BME280;63591;50.080;8.286;2023-01-30T06:47:09;99905.41;;;9.72;50.42
75026;BME280;63591;50.080;8.286;2023-01-30T06:49:34;99911.75;;;9.70;50.28
75026;BME280;63591;50.080;8.286;2023-01-30T06:51:59;99909.25;;;9.68;50.32
75026;BME280;63591;50.080;8.286;2023-01-30T06:54:25;99926.75;;;9.68;50.31
75026;BME280;63591;50.080;8.286;2023-01-30T06:56:50;99926.09;;;9.66;50.44
75026;BME280;63591;50.080;8.286;2023-01-30T06:59:15;99928.72;;;9.66;50.30
75026;BME280;63591;50.080;8.286;2023-01-30T07:01:40;99925.38;;;9.64;50.41
75026;BME280;63591;50.080;8.286;2023-01-30T07:04:06;99922.75;;;9.64;50.44
75026;BME280;63591;50.080;8.286;2023-01-30T07:06:31;99928.00;;;9.64;50.61
75026;BME280;63591;50.080;8.286;2023-01-30T07:08:57;99932.41;;;9.63;50.45
75026;BME280;63591;50.080;8.286;2023-01-30T07:11:25;99928.13;;;9.62;50.62
75026;BME280;63591;50.080;8.286;2023-01-30T07:13:51;99933.50;;;9.60;50.71
75026;BME280;63591;50.080;8.286;2023-01-30T07:16:16;99947.59;;;9.59;50.75
75026;BME280;63591;50.080;8.286;2023-01-30T07:18:42;99957.25;;;9.59;50.65
75026;BME280;63591;50.080;8.286;2023-01-30T07:21:07;99956.41;;;9.58;50.99
75026;BME280;63591;50.080;8.286;2023-01-30T07:23:32;99932.00;;;9.58;51.02
75026;BME280;63591;50.080;8.286;2023-01-30T07:25:58;99928.53;;;9.57;50.81
75026;BME280;63591;50.080;8.286;2023-01-30T07:28:23;99950.47;;;9.56;50.87
75026;BME280;63591;50.080;8.286;2023-01-30T07:30:48;99952.13;;;9.57;51.08
75026;BME280;63591;50.080;8.286;2023-01-30T07:33:17;99944.25;;;9.57;51.08
75026;BME280;63591;50.080;8.286;2023-01-30T07:35:42;99929.50;;;9.56;51.13
75026;BME280;63591;50.080;8.286;2023-01-30T07:38:08;99933.09;;;9.55;51.30
75026;BME280;63591;50.080;8.286;2023-01-30T07:40:33;99933.09;;;9.55;51.57
75026;BME280;63591;50.080;8.286;2023-01-30T07:45:34;99956.13;;;9.52;51.77
75026;BME280;63591;50.080;8.286;2023-01-30T07:48:00;99945.38;;;9.55;51.56
75026;BME280;63591;50.080;8.286;2023-01-30T07:50:26;99943.84;;;9.52;51.79
75026;BME280;63591;50.080;8.286;2023-01-30T07:52:51;99943.00;;;9.52;51.84
75026;BME280;63591;50.080;8.286;2023-01-30T07:55:16;99947.28;;;9.53;51.91
75026;BME280;63591;50.080;8.286;2023-01-30T07:57:42;99922.88;;;9.52;51.89
75026;BME280;63591;50.080;8.286;2023-01-30T08:00:08;99934.19;;;9.53;52.04
75026;BME280;63591;50.080;8.286;2023-01-30T08:02:35;99928.13;;;9.52;52.13
75026;BME280;63591;50.080;8.286;2023-01-30T08:05:00;99919.44;;;9.52;51.96
75026;BME280;63591;50.080;8.286;2023-01-30T08:07:26;99922.06;;;9.52;52.20
75026;BME280;63591;50.080;8.286;2023-01-30T08:09:51;99905.34;;;9.53;52.14
75026;BME280;63591;50.080;8.286;2023-01-30T08:12:16;99905.50;;;9.51;52.39
75026;BME280;63591;50.080;8.286;2023-01-30T08:14:41;99904.69;;;9.51;52.28
75026;BME280;63591;50.080;8.286;2023-01-30T08:17:07;99915.03;;;9.52;52.30
75026;BME280;63591;50.080;8.286;2023-01-30T08:19:32;99918.47;;;9.53;52.53
75026;BME280;63591;50.080;8.286;2023-01-30T08:21:58;99915.03;;;9.52;52.40
75026;BME280;63591;50.080;8.286;2023-01-30T08:24:23;99915.97;;;9.51;52.46
75026;BME280;63591;50.080;8.286;2023-01-30T08:26:49;99908.81;;;9.53;52.46
75026;BME280;63591;50.080;8.286;2023-01-30T08:29:14;99915.84;;;9.53;52.53
75026;BME280;63591;50.080;8.286;2023-01-30T08:31:40;99921.78;;;9.55;52.58
75026;BME280;63591;50.080;8.286;2023-01-30T08:34:05;99920.00;;;9.55;52.54
75026;BME280;63591;50.080;8.286;2023-01-30T08:36:30;99913.78;;;9.56;52.60
75026;BME280;63591;50.080;8.286;2023-01-30T08:38:56;99919.88;;;9.57;52.64
75026;BME280;63591;50.080;8.286;2023-01-30T08:41:21;99924.13;;;9.58;52.59
75026;BME280;63591;50.080;8.286;2023-01-30T08:43:47;99927.44;;;9.60;52.83
75026;BME280;63591;50.080;8.286;2023-01-30T08:46:12;99914.06;;;9.63;52.63
75026;BME280;63591;50.080;8.286;2023-01-30T08:48:37;99913.00;;;9.66;52.86
75026;BME280;63591;50.080;8.286;2023-01-30T08:51:04;99897.13;;;9.67;52.61
75026;BME280;63591;50.080;8.286;2023-01-30T08:53:30;99902.22;;;9.69;52.65
75026;BME280;63591;50.080;8.286;2023-01-30T08:55:55;99907.47;;;9.69;52.75
75026;BME280;63591;50.080;8.286;2023-01-30T08:58:21;99905.53;;;9.71;52.82
75026;BME280;63591;50.080;8.286;2023-01-30T09:00:47;99908.00;;;9.72;52.89
75026;BME280;63591;50.080;8.286;2023-01-30T09:03:14;99900.00;;;9.74;52.96
75026;BME280;63591;50.080;8.286;2023-01-30T09:05:39;99889.53;;;9.74;52.90
75026;BME280;63591;50.080;8.286;2023-01-30T09:08:05;99882.38;;;9.76;52.91
75026;BME280;63591;50.080;8.286;2023-01-30T09:10:30;99866.66;;;9.76;53.00
75026;BME280;63591;50.080;8.286;2023-01-30T09:12:55;99871.88;;;9.76;52.82
75026;BME280;63591;50.080;8.286;2023-01-30T09:15:21;99894.50;;;9.77;53.12
75026;BME280;63591;50.080;8.286;2023-01-30T09:17:46;99890.09;;;9.78;53.16
75026;BME280;63591;50.080;8.286;2023-01-30T09:20:11;99877.00;;;9.78;53.25
75026;BME280;63591;50.080;8.286;2023-01-30T09:22:37;99888.16;;;9.80;53.20
75026;BME280;63591;50.080;8.286;2023-01-30T09:25:03;99884.72;;;9.79;53.17
75026;BME280;63591;50.080;8.286;2023-01-30T09:27:29;99878.50;;;9.80;53.28
75026;BME280;63591;50.080;8.286;2023-01-30T09:29:55;99889.97;;;9.79;53.65
75026;BME280;63591;50.080;8.286;2023-01-30T09:32:20;99883.75;;;9.80;53.38
75026;BME280;63591;50.080;8.286;2023-01-30T09:34:46;99877.53;;;9.81;53.52
75026;BME280;63591;50.080;8.286;2023-01-30T09:37:11;99880.16;;;9.81;53.15
75026;BME280;63591;50.080;8.286;2023-01-30T09:39:36;99874.91;;;9.81;53.61
75026;BME280;63591;50.080;8.286;2023-01-30T09:50:10;99883.75;;;9.80;53.99
75026;BME280;63591;50.080;8.286;2023-01-30T09:55:25;99888.72;;;9.83;53.77
75026;BME280;63591;50.080;8.286;2023-01-30T09:57:53;99890.38;;;9.84;53.91
75026;BME280;63591;50.080;8.286;2023-01-30T10:00:33;99881.97;;;9.81;54.36
75026;BME280;63591;50.080;8.286;2023-01-30T10:03:10;99885.25;;;9.83;54.12
75026;BME280;63591;50.080;8.286;2023-01-30T10:05:56;99884.41;;;9.82;54.23
75026;BME280;63591;50.080;8.286;2023-01-30T10:08:49;99883.63;;;9.82;54.46
75026;BME280;63591;50.080;8.286;2023-01-30T10:16:49;99865.78;;;9.85;54.54
75026;BME280;63591;50.080;8.286;2023-01-30T10:19:24;99861.25;;;9.88;54.55
75026;BME280;63591;50.080;8.286;2023-01-30T10:24:55;99843.19;;;9.84;54.77
75026;BME280;63591;50.080;8.286;2023-01-30T10:27:28;99834.19;;;9.87;54.75
75026;BME280;63591;50.080;8.286;2023-01-30T10:29:57;99830.78;;;9.86;54.88
75026;BME280;63591;50.080;8.286;2023-01-30T10:32:55;99840.41;;;9.86;55.12
75026;BME280;63591;50.080;8.286;2023-01-30T10:35:23;99839.16;;;9.90;55.37
75026;BME280;63591;50.080;8.286;2023-01-30T10:43:40;99839.31;;;9.89;55.57
75026;BME280;63591;50.080;8.286;2023-01-30T10:54:40;99835.47;;;9.93;55.87
75026;BME280;63591;50.080;8.286;2023-01-30T11:05:29;99819.41;;;9.96;56.03
75026;BME280;63591;50.080;8.286;2023-01-30T11:07:58;99818.47;;;9.97;56.07
75026;BME280;63591;50.080;8.286;2023-01-30T11:10:26;99820.25;;;9.96;56.29
75026;BME280;63591;50.080;8.286;2023-01-30T11:12:57;99807.28;;;9.95;56.29
75026;BME280;63591;50.080;8.286;2023-01-30T11:15:38;99815.16;;;9.95;56.39
75026;BME280;63591;50.080;8.286;2023-01-30T11:18:05;99823.59;;;9.98;56.11
75026;BME280;63591;50.080;8.286;2023-01-30T11:20:42;99828.97;;;9.97;56.46
75026;BME280;63591;50.080;8.286;2023-01-30T11:23:22;99828.13;;;9.96;56.57
75026;BME280;63591;50.080;8.286;2023-01-30T11:25:50;99829.50;;;10.01;56.15
75026;BME280;63591;50.080;8.286;2023-01-30T11:28:16;99837.38;;;10.01;56.41
75026;BME280;63591;50.080;8.286;2023-01-30T11:30:43;99839.03;;;10.02;56.55
75026;BME280;63591;50.080;8.286;2023-01-30T11:33:17;99846.78;;;10.03;56.54
75026;BME280;63591;50.080;8.286;2023-01-30T11:35:51;99849.53;;;10.02;56.75
75026;BME280;63591;50.080;8.286;2023-01-30T11:38:26;99858.91;;;10.04;56.67
75026;BME280;63591;50.080;8.286;2023-01-30T11:41:09;99852.81;;;10.04;56.90
75026;BME280;63591;50.080;8.286;2023-01-30T11:43:40;99861.38;;;10.06;56.87
75026;BME280;63591;50.080;8.286;2023-01-30T11:46:07;99858.91;;;10.04;56.81
75026;BME280;63591;50.080;8.286;2023-01-30T11:48:42;99856.41;;;10.03;57.06
75026;BME280;63591;50.080;8.286;2023-01-30T11:51:12;99844.81;;;10.05;57.04
75026;BME280;63591;50.080;8.286;2023-01-30T11:53:43;99843.16;;;10.04;56.96
75026;BME280;63591;50.080;8.286;2023-01-30T11:56:21;99852.53;;;10.07;56.98
75026;BME280;63591;50.080;8.286;2023-01-30T11:58:55;99859.44;;;10.08;57.01
75026;BME280;63591;50.080;8.286;2023-01-30T12:01:27;99854.06;;;10.09;56.90
75026;BME280;63591;50.080;8.286;2023-01-30T12:03:54;99860.97;;;10.10;56.90
75026;BME280;63591;50.080;8.286;2023-01-30T12:06:29;99831.44;;;10.08;57.10
75026;BME280;63591;50.080;8.286;2023-01-30T12:08:55;99850.34;;;10.12;56.93
75026;BME280;63591;50.080;8.286;2023-01-30T12:14:16;99832.41;;;10.07;56.92
75026;BME280;63591;50.080;8.286;2023-01-30T12:16:58;99832.13;;;10.10;57.00
75026;BME280;63591;50.080;8.286;2023-01-30T12:24:49;99807.69;;;10.10;56.87
75026;BME280;63591;50.080;8.286;2023-01-30T12:32:46;99821.34;;;10.14;56.73
75026;BME280;63591;50.080;8.286;2023-01-30T12:35:16;99811.66;;;10.14;56.69
75026;BME280;63591;50.080;8.286;2023-01-30T12:37:59;99816.25;;;10.12;56.59
75026;BME280;63591;50.080;8.286;2023-01-30T12:43:24;99822.03;;;10.16;56.59
75026;BME280;63591;50.080;8.286;2023-01-30T12:46:01;99810.72;;;10.15;56.59
75026;BME280;63591;50.080;8.286;2023-01-30T12:51:41;99826.59;;;10.14;56.61
75026;BME280;63591;50.080;8.286;2023-01-30T12:59:35;99829.09;;;10.15;56.70
75026;BME280;63591;50.080;8.286;2023-01-30T13:02:15;99838.19;;;10.21;56.57
75026;BME280;63591;50.080;8.286;2023-01-30T13:08:09;99838.19;;;10.21;56.66
75026;BME280;63591;50.080;8.286;2023-01-30T13:16:02;99837.47;;;10.19;56.69
75026;BME280;63591;50.080;8.286;2023-01-30T13:18:34;99832.78;;;10.22;56.70
75026;BME280;63591;50.080;8.286;2023-01-30T13:26:42;99837.75;;;10.26;56.56
75026;BME280;63591;50.080;8.286;2023-01-30T13:29:15;99847.56;;;10.23;56.46
75026;BME280;63591;50.080;8.286;2023-01-30T13:31:55;99849.19;;;10.24;56.60
75026;BME280;63591;50.080;8.286;2023-01-30T13:34:33;99842.16;;;10.25;56.66
75026;BME280;63591;50.080;8.286;2023-01-30T13:37:02;99850.88;;;10.26;56.70
75026;BME280;63591;50.080;8.286;2023-01-30T13:39:35;99855.28;;;10.25;56.62
75026;BME280;63591;50.080;8.286;2023-01-30T13:42:07;99861.38;;;10.26;56.71
75026;BME280;63591;50.080;8.286;2023-01-30T13:44:37;99860.53;;;10.25;56.60
75026;BME280;63591;50.080;8.286;2023-01-30T13:47:26;99864.28;;;10.22;56.92
75026;BME280;63591;50.080;8.286;2023-01-30T13:53:10;99859.84;;;10.23;56.82
75026;BME280;63591;50.080;8.286;2023-01-30T13:55:56;99866.63;;;10.26;56.83
75026;BME280;63591;50.080;8.286;2023-01-30T13:58:54;99859.69;;;10.24;56.91
75026;BME280;63591;50.080;8.286;2023-01-30T14:01:23;99861.09;;;10.29;56.79
75026;BME280;63591;50.080;8.286;2023-01-30T14:03:52;99860.41;;;10.27;56.74
75026;BME280;63591;50.080;8.286;2023-01-30T14:06:36;99870.31;;;10.23;57.03
75026;BME280;63591;50.080;8.286;2023-01-30T14:09:05;99888.41;;;10.26;56.88
75026;BME280;63591;50.080;8.286;2023-01-30T14:12:00;99905.00;;;10.27;57.06
75026;BME280;63591;50.080;8.286;2023-01-30T14:14:27;99906.94;;;10.34;57.11
75026;BME280;63591;50.080;8.286;2023-01-30T14:16:55;99908.56;;;10.35;56.90
75026;BME280;63591;50.080;8.286;2023-01-30T14:19:37;99899.72;;;10.36;57.18
75026;BME280;63591;50.080;8.286;2023-01-30T14:22:17;99903.88;;;10.39;57.11
75026;BME280;63591;50.080;8.286;2023-01-30T14:24:43;99900.41;;;10.39;57.05
75026;BME280;63591;50.080;8.286;2023-01-30T14:27:25;99902.63;;;10.33;57.37
75026;BME280;63591;50.080;8.286;2023-01-30T14:29:56;99896.44;;;10.34;57.40
75026;BME280;63591;50.080;8.286;2023-01-30T14:45:54;99930.38;;;10.26;57.83
75026;BME280;63591;50.080;8.286;2023-01-30T14:51:41;99936.34;;;10.28;57.48
75026;BME280;63591;50.080;8.286;2023-01-30T14:59:38;99963.25;;;10.30;57.67
75026;BME280;63591;50.080;8.286;2023-01-30T15:04:51;99970.16;;;10.31;58.31
75026;BME280;63591;50.080;8.286;2023-01-30T15:07:23;99962.97;;;10.33;58.10
75026;BME280;63591;50.080;8.286;2023-01-30T15:09:57;99965.47;;;10.35;58.00
75026;BME280;63591;50.080;8.286;2023-01-30T15:21:02;99972.38;;;10.36;58.02
75026;BME280;63591;50.080;8.286;2023-01-30T15:26:37;99985.91;;;10.31;58.10
75026;BME280;63591;50.080;8.286;2023-01-30T15:35:20;99998.91;;;10.33;57.77
75026;BME280;63591;50.080;8.286;2023-01-30T15:42:43;100002.31;;;10.33;57.50
75026;BME280;63591;50.080;8.286;2023-01-30T15:50:51;100007.72;;;10.32;57.17
75026;BME280;63591;50.080;8.286;2023-01-30T15:53:39;100017.41;;;10.31;57.43